Dalzell, South Carolina
Current Conditions -  °F | °C
As of 4:35 AM on Monday 24 Nov 2014 (Local Time) from KSMS Reporting Station
Overcast Overcast  
Wind Chill: 66°   Ceiling: 2200
Heat Index: 66°   Visibility: 10mi
Dew Point: 66°   Wind: 5mph
Humidity: 100%   Direction: 200°SSW
Pressure: 29.8"   Gusts: NA
Location:  34.02°N, 80.43°W
Report Text: KSMS 240935Z AUTO 20004KT 10SM SCT016 BKN022 OVC030 19/19 A2980 RMK AO2
Loading
Personal Weather Stations






























Interactive Weather Map New forecast layout! Learn more

10-Day Weather Forecast

Advertisements
Track Severe Weather on mobile